Bellflower, Illinois
Current Conditions -  °F | °C
As of 8:15 AM on Sunday 25 Jan 2015 (Local Time) from KTIP Reporting Station
Light Rain Light Rain  
Wind Chill: 30°   Ceiling: 3400
Heat Index: 36°   Visibility: 5mi
Dew Point: 34°   Wind: 7mph
Humidity: 94%   Direction: 50°NE
Pressure: 29.63"   Gusts: NA
Location:  40.34°N, 88.53°W
Report Text: KTIP 251415Z AUTO 05006KT 5SM -RA BKN034 OVC041 02/01 A2963 RMK AO2 T00200011
Loading
Personal Weather Stations






























Interactive Weather Map New forecast layout! Learn more

10-Day Weather Forecast

Advertisements
Track Severe Weather on mobile